Flight Track Log - Related Links

Times and Time Zones

All times are in EDT time to prevent confusion due to time zone crossing. See the DAL1903 flight status page for this flight to view local times or setup timezone preferences in your user account.

Time Position Orientation Groundspeed Altitude Reporting Facility
EDT Latitude Longitude Course Direction KTS MPH feet Rate Location/Type
Thu 02:28:44 PM 27.4167 -82.6000 299° West 175 201 1,900  Level Tampa TRACON
Thu 02:29:44 PM 27.4000 -82.6667 254° West 257 296 3,900 2,630 Climbing Tampa TRACON
Thu 02:31:00 PM 27.7204 -82.7833 North  Level FlightAware Approximate
Thu 02:31:10 PM 27.4461 -82.7653 298° West 274 315 8,300  Level Miami Center
Thu 02:32:00 PM 27.8440 -82.7833 North  Level FlightAware Approximate
Thu 02:32:13 PM 27.5219 -82.7925 342° North 301 346 10,800  Level Miami Center
Thu 02:33:00 PM 27.9676 -82.7833 North  Level FlightAware Approximate
Thu 02:33:15 PM 27.6194 -82.7908 North 341 392 12,300  Level Miami Center
Thu 02:34:17 PM 27.7294 -82.7892 North 384 442 14,600 2,177 Climbing Miami Center
Thu 02:35:19 PM 27.8436 -82.7892 360° North 402 463 16,800 2,032 Climbing Miami Center
Thu 02:36:21 PM 27.9697 -82.7878 North 412 474 18,800 1,984 Climbing Miami Center
Thu 02:37:23 PM 28.1044 -82.7867 360° North 430 495 20,900 1,790 Climbing Miami Center
Thu 02:38:25 PM 28.2297 -82.7853 North 440 506 22,500 1,597 Climbing Miami Center
Thu 02:39:27 PM 28.3556 -82.7847 360° North 448 516 24,200 1,548 Climbing Miami Center
Thu 02:40:29 PM 28.4836 -82.7783 North 453 521 25,700 1,258 Climbing Miami Center
Thu 02:41:31 PM 28.6069 -82.7664 North 466 536 26,800 1,500 Climbing Miami Center
Thu 02:42:33 PM 28.7522 -82.6964 23° Northeast 474 545 28,800 1,597 Climbing Miami Center
Thu 02:43:35 PM 28.8747 -82.6517 18° North 472 543 30,100 1,210 Climbing Miami Center
Thu 02:44:37 PM 29.0047 -82.6592 357° North 468 539 31,300 1,182 Climbing Miami Center
Thu 02:45:52 PM 29.1619 -82.6714 356° North 459 528 32,800 1,200 Climbing Jacksonville Center
Thu 02:46:52 PM 29.2936 -82.6806 357° North 464 534 34,000 1,050 Climbing Jacksonville Center
Thu 02:47:52 PM 29.4250 -82.6922 356° North 464 534 34,900 1,150 Climbing Jacksonville Center
Thu 02:48:52 PM 29.5692 -82.6919 360° North 458 527 36,300 1,050 Climbing Jacksonville Center
Thu 02:49:52 PM 29.6986 -82.6942 359° North 458 527 37,000 300 Climbing Jacksonville Center
Thu 02:50:52 PM 29.8281 -82.6914 North 458 527 36,900  Descending Jacksonville Center
Thu 02:51:52 PM 29.9553 -82.6911 360° North 458 527 37,000 50 Climbing Jacksonville Center
Thu 02:52:52 PM 30.0847 -82.6861 North 458 527 37,000 -50 Level Jacksonville Center
Thu 02:53:52 PM 30.2119 -82.6858 360° North 458 527 36,900 -50 Descending Jacksonville Center
Thu 02:54:52 PM 30.3414 -82.6856 360° North 458 527 36,900 50 Level Jacksonville Center
Thu 02:55:52 PM 30.4689 -82.6806 North 458 527 37,000 50 Climbing Jacksonville Center
Thu 02:56:52 PM 30.5794 -82.6536 12° North 458 527 37,000  Level Jacksonville Center
Thu 02:57:52 PM 30.7025 -82.5953 22° Northeast 458 527 37,000  Level Jacksonville Center
Thu 02:58:52 PM 30.8214 -82.5369 23° Northeast 463 533 37,000 -50 Level Jacksonville Center
Thu 02:59:52 PM 30.9422 -82.4736 24° Northeast 463 533 36,900  Descending Jacksonville Center
Thu 03:00:52 PM 31.0653 -82.4172 21° North 468 539 37,000 400 Climbing Jacksonville Center
Thu 03:01:52 PM 31.1861 -82.3558 23° Northeast 468 539 37,700 1,000 Climbing Jacksonville Center
Thu 03:02:52 PM 31.3050 -82.2992 22° Northeast 473 544 39,000 600 Climbing Jacksonville Center
Thu 03:03:52 PM 31.4236 -82.2475 20° North 460 529 38,900 -50 Descending Jacksonville Center
Thu 03:04:52 PM 31.5425 -82.1856 24° Northeast 460 529 38,900 50 Level Jacksonville Center
Thu 03:05:52 PM 31.6611 -82.1261 23° Northeast 460 529 39,000 50 Climbing Jacksonville Center
Thu 03:06:52 PM 31.7922 -82.0592 23° Northeast 460 529 39,000  Level Jacksonville Center
Thu 03:07:52 PM 31.9003 -82.0042 23° Northeast 455 524 39,000  Level Jacksonville Center
Thu 03:09:52 PM 32.1456 -81.8572 33° Northeast 466 536 39,000  Level Jacksonville Center
Thu 03:10:52 PM 32.2517 -81.7969 26° Northeast 466 536 39,000  Level Jacksonville Center
Thu 03:11:52 PM 32.3803 -81.7192 27° Northeast 466 536 39,000  Level Jacksonville Center
Thu 03:12:52 PM 32.4986 -81.6486 27° Northeast 466 536 39,000  Level Jacksonville Center
Thu 03:13:52 PM 32.6044 -81.5806 28° Northeast 466 536 39,000 -50 Level Jacksonville Center
Thu 03:14:52 PM 32.7100 -81.4903 36° Northeast 471 542 38,900  Descending Jacksonville Center
Thu 03:15:52 PM 32.8175 -81.3972 36° Northeast 471 542 39,000 50 Climbing Jacksonville Center
Thu 03:16:52 PM 32.9183 -81.2892 42° Northeast 477 549 39,000 -50 Level Jacksonville Center
Thu 03:17:52 PM 33.0064 -81.1661 50° Northeast 477 549 38,900  Descending Jacksonville Center
Thu 03:18:52 PM 33.0925 -81.0478 49° Northeast 482 555 39,000  Climbing Jacksonville Center
Thu 03:19:52 PM 33.1803 -80.9244 50° Northeast 482 555 38,900 -50 Descending Jacksonville Center
Thu 03:20:52 PM 33.2722 -80.8008 48° Northeast 488 562 38,900  Level Jacksonville Center
Thu 03:21:52 PM 33.3619 -80.6792 49° Northeast 488 562 38,900 50 Level Jacksonville Center
Thu 03:22:52 PM 33.4517 -80.5525 50° Northeast 488 562 39,000  Climbing Jacksonville Center
Thu 03:23:52 PM 33.5431 -80.4306 48° Northeast 488 562 38,900 -50 Descending Jacksonville Center
Thu 03:24:52 PM 33.6344 -80.3033 49° Northeast 488 562 38,900 50 Level Jacksonville Center
Thu 03:25:52 PM 33.7194 -80.1783 51° Northeast 488 562 39,000 50 Climbing Jacksonville Center
Thu 03:26:52 PM 33.8172 -80.0653 44° Northeast 482 555 39,000  Level Jacksonville Center
Thu 03:27:52 PM 33.9344 -79.9889 28° Northeast 476 548 39,000  Level Jacksonville Center
Thu 03:28:52 PM 34.0539 -79.9200 26° Northeast 471 542 39,000  Level Jacksonville Center
Thu 03:31:08 PM 34.3250 -79.7436 28° Northeast 479 551 39,000  Level Washington Center
Thu 03:32:09 PM 34.4422 -79.6764 25° Northeast 474 545 39,000  Level Washington Center
Thu 03:33:10 PM 34.5592 -79.6067 26° Northeast 469 540 39,000  Level Washington Center
Thu 03:34:08 PM 34.6786 -79.5317 27° Northeast 464 534 39,000  Level Washington Center
Thu 03:35:09 PM 34.8000 -79.4567 27° Northeast 470 541 39,000  Level Washington Center
Thu 03:36:09 PM 34.9192 -79.3814 27° Northeast 475 547 39,000  Level Washington Center
Thu 03:37:10 PM 35.0406 -79.3058 27° Northeast 485 558 39,000  Level Washington Center
Thu 03:38:08 PM 35.1639 -79.2328 26° Northeast 485 558 39,000  Level Washington Center
Thu 03:39:09 PM 35.2828 -79.1592 27° Northeast 480 552 39,000  Level Washington Center
Thu 03:40:10 PM 35.4103 -79.0808 27° Northeast 496 571 39,000  Level Washington Center
Thu 03:41:09 PM 35.5253 -79.0094 27° Northeast 488 562 39,000  Level Washington Center
Thu 03:42:09 PM 35.6483 -78.9328 27° Northeast 483 556 39,000  Level Washington Center
Thu 03:43:10 PM 35.7717 -78.8536 28° Northeast 483 556 39,000  Level Washington Center
Thu 03:44:10 PM 35.8925 -78.7739 28° Northeast 483 556 39,000  Level Washington Center
Thu 03:45:08 PM 36.0058 -78.6731 36° Northeast 489 563 39,000  Level Washington Center
Thu 03:46:09 PM 36.1189 -78.5747 35° Northeast 495 570 39,000  Level Washington Center
Thu 03:47:10 PM 36.2319 -78.4733 36° Northeast 495 570 39,000  Level Washington Center
Thu 03:48:10 PM 36.3469 -78.3744 35° Northeast 500 575 39,000  Level Washington Center
Thu 03:49:08 PM 36.4578 -78.2725 36° Northeast 500 575 39,000  Level Washington Center
Thu 03:50:08 PM 36.5728 -78.1731 35° Northeast 500 575 39,000  Level Washington Center
Thu 03:51:10 PM 36.6811 -78.0706 37° Northeast 500 575 39,000  Level Washington Center
Thu 03:52:10 PM 36.7919 -77.9678 37° Northeast 495 570 39,000  Level Washington Center
Thu 03:53:08 PM 36.9064 -77.8750 33° Northeast 495 570 39,000  Level Washington Center
Thu 03:54:09 PM 37.0339 -77.8581 North 458 527 39,000  Level Washington Center
Thu 03:55:09 PM 37.1631 -77.8619 359° North 452 520 39,000  Level Washington Center
Thu 03:56:10 PM 37.2903 -77.8656 359° North 447 514 39,000  Level Washington Center
Thu 03:57:08 PM 37.4161 -77.8353 11° North 447 514 39,000  Level Washington Center
Thu 03:58:09 PM 37.5100 -77.7125 46° Northeast 440 506 39,000  Level Washington Center
Thu 03:59:10 PM 37.5772 -77.5597 61° Northeast 459 528 39,000  Level Washington Center
Thu 04:00:08 PM 37.6444 -77.4042 61° Northeast 472 543 39,000  Level Washington Center
Thu 04:01:09 PM 37.7136 -77.2431 61° Northeast 494 568 39,000  Level Washington Center
Thu 04:02:10 PM 37.7781 -77.0867 62° Northeast 499 574 39,000  Level Washington Center
Thu 04:03:10 PM 37.8447 -76.9278 62° Northeast 504 580 39,000  Level Washington Center
Thu 04:04:08 PM 37.9108 -76.7708 62° Northeast 509 586 39,000  Level Washington Center
Thu 04:05:09 PM 37.9997 -76.6328 51° Northeast 509 586 39,000  Level Washington Center
Thu 04:06:09 PM 38.1133 -76.5314 35° Northeast 493 567 39,000  Level Washington Center
Thu 04:07:09 PM 38.2306 -76.4428 31° Northeast 488 562 39,000 -99 Level Washington Center
Thu 04:08:10 PM 38.3417 -76.3489 34° Northeast 488 562 38,800 -605 Descending Washington Center
Thu 04:09:08 PM 38.4569 -76.2439 35° Northeast 493 567 37,800 -958 Descending Washington Center
Thu 04:10:09 PM 38.5703 -76.1361 37° Northeast 500 575 36,900 -1,587 Descending Washington Center
Thu 04:11:09 PM 38.6769 -76.0383 36° Northeast 506 582 34,600 -2,926 Descending Washington Center
Thu 04:12:10 PM 38.7939 -75.9300 36° Northeast 511 588 31,000 -3,479 Descending Washington Center
Thu 04:13:08 PM 38.9131 -75.8211 35° Northeast 516 594 27,700 -2,067 Descending Washington Center
Thu 04:14:09 PM 39.0217 -75.7172 37° Northeast 508 585 26,900 -344 Descending Washington Center
Thu 04:15:10 PM 39.1281 -75.6156 37° Northeast 488 562 27,000 -1,400 Climbing Washington Center
Thu 04:16:09 PM 39.2383 -75.5139 36° Northeast 481 554 24,100 -2,420 Descending Washington Center
Thu 04:17:09 PM 39.3425 -75.4197 35° Northeast 475 547 22,200 -1,750 Descending Washington Center
Thu 04:18:09 PM 39.4425 -75.3308 34° Northeast 458 527 20,600 -1,537 Descending Washington Center
Thu 04:19:10 PM 39.5400 -75.2417 35° Northeast 441 507 19,100 -1,388 Descending Washington Center
Thu 04:20:10 PM 39.6336 -75.1550 35° Northeast 425 489 17,800 -1,424 Descending Washington Center
Thu 04:21:08 PM 39.7292 -75.0708 34° Northeast 419 482 16,300 -1,513 Descending Washington Center
Thu 04:22:09 PM 39.8286 -74.9836 34° Northeast 404 465 14,800 -1,488 Descending Washington Center
Thu 04:23:09 PM 39.9197 -74.8989 35° Northeast 392 451 13,300 -1,377 Descending Washington Center
Thu 04:24:11 PM 39.9900 -74.8008 47° Northeast 392 451 12,000 -1,339 Descending Washington Center
Thu 04:25:01 PM 40.0500 -74.7167 47° Northeast 379 436 10,800 -1,091 Descending New York TRACON
Thu 04:26:01 PM 40.1167 -74.6167 49° Northeast 368 423 10,000 -350 Descending New York TRACON
Thu 04:27:01 PM 40.2000 -74.5000 47° Northeast 369 425 10,100  Climbing New York TRACON
Thu 04:27:56 PM 40.2500 -74.4333 45° Northeast 366 421 10,000 -417 Descending New York TRACON
Thu 04:28:56 PM 40.3167 -74.3500 44° Northeast 305 351 9,300 -500 Descending New York TRACON
Thu 04:29:56 PM 40.3833 -74.2833 37° Northeast 309 356 9,000 -450 Descending New York TRACON
Thu 04:30:56 PM 40.4500 -74.2000 44° Northeast 304 350 8,400 -1,050 Descending New York TRACON
Thu 04:31:56 PM 40.5167 -74.1333 37° Northeast 294 338 6,900 -1,500 Descending New York TRACON
Thu 04:32:56 PM 40.5833 -74.0833 30° Northeast 287 330 5,400 -1,450 Descending New York TRACON
Thu 04:33:56 PM 40.6500 -74.0333 30° Northeast 279 321 4,000 -700 Descending New York TRACON
Thu 04:34:56 PM 40.7333 -74.0167 North 280 322 4,000  Level New York TRACON
Thu 04:35:55 PM 40.8000 -73.9833 21° North 283 326 4,000  Level New York TRACON
Thu 04:36:55 PM 40.8667 -73.9333 30° Northeast 259 298 4,000 -350 Level New York TRACON
Thu 04:37:55 PM 40.9000 -73.8833 49° Northeast 216 249 3,300 -1,000 Descending New York TRACON
Thu 04:38:55 PM 40.8667 -73.8333 131° Southeast 168 193 2,000 -1,100 Descending New York TRACON
Thu 04:39:55 PM 40.8333 -73.8333 180° South 128 147 1,100 -750 Descending New York TRACON
Thu 04:40:55 PM 40.8000 -73.8500 201° Southwest 120 138 500 -600 Descending New York TRACON

Login

Don't have an account? Register now (free) for customized features, flight alerts, and more!